createdAt,value
2018-07-04T00:00:49.430Z,19.18
2018-07-04T00:02:34.827Z,19.21
2018-07-04T00:03:34.840Z,19.22
2018-07-04T00:04:34.612Z,19.19
2018-07-04T00:05:34.896Z,19.16
2018-07-04T00:06:34.655Z,19.21
2018-07-04T00:07:34.941Z,19.08
2018-07-04T00:08:34.962Z,19.19
2018-07-04T00:09:34.740Z,19.13
2018-07-04T00:10:35.011Z,19.19
2018-07-04T00:11:49.440Z,19.22
2018-07-04T00:12:34.802Z,19.18
2018-07-04T00:13:34.828Z,19.16
2018-07-04T00:14:34.852Z,19.18
2018-07-04T00:15:49.543Z,19.14
2018-07-04T00:16:35.160Z,19.14
2018-07-04T00:18:35.207Z,19.04
2018-07-04T00:19:35.231Z,19.18
2018-07-04T00:20:35.258Z,19.04
2018-07-04T00:21:35.284Z,19.04
2018-07-04T00:22:35.052Z,19
2018-07-04T00:23:35.379Z,18.94
2018-07-04T00:24:35.354Z,18.91
2018-07-04T00:25:35.492Z,19
2018-07-04T00:26:35.144Z,18.87
2018-07-04T00:27:35.175Z,18.85
2018-07-04T00:28:35.463Z,18.9
2018-07-04T00:29:35.218Z,18.91
2018-07-04T00:30:35.519Z,18.88
2018-07-04T00:31:35.269Z,18.88
2018-07-04T00:32:35.549Z,18.84
2018-07-04T00:33:35.314Z,18.85
2018-07-04T00:34:35.603Z,18.75
2018-07-04T00:35:35.622Z,18.73
2018-07-04T00:36:35.389Z,18.73
2018-07-04T00:37:35.415Z,18.76
2018-07-04T00:38:35.692Z,18.75
2018-07-04T00:39:35.461Z,18.73
2018-07-04T00:40:35.484Z,18.84
2018-07-04T00:41:50.428Z,18.78
2018-07-04T00:42:35.789Z,18.73
2018-07-04T00:43:35.815Z,18.7
2018-07-04T00:44:35.839Z,18.66
2018-07-04T00:45:35.865Z,18.82
2018-07-04T00:46:35.884Z,18.69
2018-07-04T00:47:50.578Z,18.66
2018-07-04T00:49:35.968Z,18.66
2018-07-04T00:50:35.728Z,18.69
2018-07-04T00:52:36.035Z,18.69
2018-07-04T00:53:36.062Z,18.73
2018-07-04T00:54:36.080Z,18.7
2018-07-04T00:55:36.112Z,18.65
2018-07-04T00:56:50.792Z,18.6
2018-07-04T00:57:36.156Z,18.62
2018-07-04T00:58:50.839Z,18.62
2018-07-04T00:59:36.205Z,18.58
2018-07-04T01:00:35.975Z,18.62
2018-07-04T01:01:36.257Z,18.55
2018-07-04T01:02:36.276Z,18.54
2018-07-04T01:03:50.961Z,18.48
2018-07-04T01:06:36.372Z,18.5
2018-07-04T01:07:36.398Z,18.55
2018-07-04T01:08:36.424Z,18.51
2018-07-04T01:09:36.444Z,18.47
2018-07-04T01:10:36.473Z,18.5
2018-07-04T01:11:36.497Z,18.36
2018-07-04T01:12:36.617Z,18.37
2018-07-04T01:13:36.541Z,18.47
2018-07-04T01:14:36.565Z,18.37
2018-07-04T01:15:36.074Z,18.41
2018-07-04T01:16:36.612Z,18.41
2018-07-04T01:17:36.380Z,18.29
2018-07-04T01:19:51.346Z,18.26
2018-07-04T01:20:36.709Z,18.29
2018-07-04T01:21:36.730Z,18.3
2018-07-04T01:23:36.787Z,18.3
2018-07-04T01:24:36.802Z,18.27
2018-07-04T01:25:36.829Z,18.26
2018-07-04T01:26:36.859Z,18.25
2018-07-04T01:27:36.874Z,18.23
2018-07-04T01:28:36.904Z,18.27
2018-07-04T01:29:36.927Z,18.12
2018-07-04T01:30:36.950Z,18.1
2018-07-04T01:31:36.974Z,18.12
2018-07-04T01:32:36.999Z,18.05
2018-07-04T01:33:37.023Z,18.08
2018-07-04T01:34:37.045Z,17.97
2018-07-04T01:35:51.729Z,18.1
2018-07-04T01:36:37.095Z,18.1
2018-07-04T01:37:36.605Z,18.14
2018-07-04T01:38:36.884Z,17.96
2018-07-04T01:39:37.168Z,18.11
2018-07-04T01:40:36.933Z,18.05
2018-07-04T01:41:36.960Z,17.99
2018-07-04T01:42:36.983Z,17.97
2018-07-04T01:43:37.004Z,17.92
2018-07-04T01:44:37.028Z,17.96
2018-07-04T01:45:37.052Z,17.95
2018-07-04T01:46:37.079Z,17.95
2018-07-04T01:47:37.109Z,17.92
2018-07-04T01:48:37.381Z,17.89
2018-07-04T01:49:37.150Z,17.84
2018-07-04T01:50:52.099Z,17.87
2018-07-04T01:51:37.198Z,17.82
2018-07-04T01:52:37.481Z,17.78
2018-07-04T01:53:37.505Z,17.87
2018-07-04T01:54:37.280Z,17.79
2018-07-04T01:55:37.553Z,17.81
2018-07-04T01:57:37.344Z,17.75
2018-07-04T01:58:37.366Z,17.79
2018-07-04T01:59:37.646Z,17.86
2018-07-04T02:00:37.672Z,17.77
2018-07-04T02:01:37.751Z,17.72
2018-07-04T02:02:37.720Z,17.78
2018-07-04T02:03:37.229Z,17.68
2018-07-04T02:04:37.606Z,17.72
2018-07-04T02:05:37.798Z,17.64
2018-07-04T02:06:37.556Z,17.66
2018-07-04T02:07:37.322Z,17.66
2018-07-04T02:08:37.865Z,17.56
2018-07-04T02:09:37.629Z,17.59
2018-07-04T02:11:37.675Z,17.56
2018-07-04T02:12:37.704Z,17.56
2018-07-04T02:13:37.725Z,17.59
2018-07-04T02:14:52.670Z,17.58
2018-07-04T02:15:52.692Z,17.51
2018-07-04T02:16:38.058Z,17.51
2018-07-04T02:17:52.491Z,17.44
2018-07-04T02:18:38.101Z,17.25
2018-07-04T02:19:37.868Z,17.18
2018-07-04T02:20:38.149Z,17.19
2018-07-04T02:21:38.170Z,17.15
2018-07-04T02:22:52.858Z,17.01
2018-07-04T02:23:37.963Z,16.94
2018-07-04T02:24:38.251Z,16.94
2018-07-04T02:25:38.013Z,16.88
2018-07-04T02:26:38.037Z,16.83
2018-07-04T02:27:38.314Z,16.76
2018-07-04T02:28:38.090Z,16.66
2018-07-04T02:29:38.364Z,16.71
2018-07-04T02:30:53.051Z,16.64
2018-07-04T02:31:38.415Z,16.56
2018-07-04T02:32:38.436Z,16.58
2018-07-04T02:33:38.218Z,16.56
2018-07-04T02:34:38.484Z,16.5
2018-07-04T02:37:38.559Z,16.45
2018-07-04T02:38:53.251Z,16.39
2018-07-04T02:39:38.602Z,16.33
2018-07-04T02:40:38.629Z,16.33
2018-07-04T02:41:38.654Z,16.25
2018-07-04T02:42:38.674Z,16.33
2018-07-04T02:43:38.703Z,16.31
2018-07-04T02:44:38.726Z,16.45
2018-07-04T02:45:38.751Z,16.41
2018-07-04T02:46:53.445Z,16.31
2018-07-04T02:47:38.543Z,16.39
2018-07-04T02:48:38.559Z,16.42
2018-07-04T02:49:38.838Z,16.42
2018-07-04T02:50:38.861Z,16.39
2018-07-04T02:51:38.897Z,16.39
2018-07-04T02:52:39.013Z,16.38
2018-07-04T02:53:38.941Z,16.5
2018-07-04T02:54:53.649Z,16.52
2018-07-04T02:55:38.984Z,16.43
2018-07-04T02:57:39.038Z,16.42
2018-07-04T02:58:39.054Z,16.38
2018-07-04T02:59:39.079Z,16.35
2018-07-04T03:00:39.107Z,16.27
2018-07-04T03:01:39.149Z,16.3
2018-07-04T03:02:39.153Z,16.27
2018-07-04T03:03:39.222Z,16.27
2018-07-04T03:04:39.196Z,16.15
2018-07-04T03:05:38.966Z,16.08
2018-07-04T03:06:39.244Z,16.07
2018-07-04T03:07:38.752Z,16.02
2018-07-04T03:08:39.290Z,16
2018-07-04T03:09:39.312Z,16.01
2018-07-04T03:10:53.999Z,15.97
2018-07-04T03:11:39.368Z,16.11
2018-07-04T03:12:39.393Z,16.01
2018-07-04T03:13:39.413Z,15.96
2018-07-04T03:15:39.455Z,15.94
2018-07-04T03:16:54.143Z,15.96
2018-07-04T03:17:39.502Z,16.02
2018-07-04T03:18:39.530Z,16.05
2018-07-04T03:19:39.549Z,16
2018-07-04T03:20:39.314Z,15.96
2018-07-04T03:21:39.342Z,15.96
2018-07-04T03:22:39.632Z,16
2018-07-04T03:23:39.670Z,15.96
2018-07-04T03:24:39.669Z,16.01
2018-07-04T03:25:54.354Z,16.01
2018-07-04T03:26:39.712Z,16
2018-07-04T03:27:39.484Z,16.05
2018-07-04T03:28:39.765Z,15.94
2018-07-04T03:29:39.786Z,15.86
2018-07-04T03:30:39.870Z,15.94
2018-07-04T03:31:54.496Z,15.87
2018-07-04T03:32:39.600Z,16.01
2018-07-04T03:33:39.879Z,16.02
2018-07-04T03:34:39.905Z,15.89
2018-07-04T03:35:39.931Z,15.89
2018-07-04T03:36:39.958Z,16.05
2018-07-04T03:37:39.973Z,16
2018-07-04T03:38:39.744Z,15.97
2018-07-04T03:39:39.763Z,16.09
2018-07-04T03:40:40.044Z,16.11
2018-07-04T03:41:40.082Z,16.08
2018-07-04T03:42:40.090Z,16.11
2018-07-04T03:44:40.137Z,16.05
2018-07-04T03:45:40.167Z,16.09
2018-07-04T03:46:40.185Z,16.02
2018-07-04T03:47:40.211Z,16.08
2018-07-04T03:48:40.236Z,16.09
2018-07-04T03:49:40.256Z,16.21
2018-07-04T03:50:40.280Z,16.3
2018-07-04T03:51:40.304Z,16.28
2018-07-04T03:52:40.332Z,16.31
2018-07-04T03:53:40.349Z,16.27
2018-07-04T03:55:40.396Z,16.38
2018-07-04T03:56:40.419Z,16.31
2018-07-04T03:57:55.105Z,16.34
2018-07-04T03:58:40.470Z,16.33
2018-07-04T03:59:40.491Z,16.3
2018-07-04T04:00:40.259Z,16.43
2018-07-04T04:01:40.538Z,16.33
2018-07-04T04:02:40.563Z,16.45
2018-07-04T04:03:40.589Z,16.41
2018-07-04T04:04:40.608Z,16.5
2018-07-04T04:05:40.636Z,16.5
2018-07-04T04:06:40.657Z,16.46
2018-07-04T04:07:55.341Z,16.53
2018-07-04T04:08:55.364Z,16.56
2018-07-04T04:09:40.726Z,16.61
2018-07-04T04:10:40.752Z,16.66
2018-07-04T04:11:40.517Z,16.68
2018-07-04T04:12:40.797Z,16.76
2018-07-04T04:13:55.227Z,16.93
2018-07-04T04:14:40.853Z,17.23
2018-07-04T04:15:40.867Z,17.93
2018-07-04T04:16:40.894Z,18.95
2018-07-04T04:17:40.919Z,20.14
2018-07-04T04:18:40.688Z,21.09
2018-07-04T04:19:40.964Z,21.92
2018-07-04T04:20:40.990Z,22.7
2018-07-04T04:21:41.029Z,23.63
2018-07-04T04:22:41.049Z,24.12
2018-07-04T04:23:41.067Z,24.57
2018-07-04T04:24:41.091Z,25.43
2018-07-04T04:26:41.144Z,26.35
2018-07-04T04:27:41.168Z,26.73
2018-07-04T04:28:40.941Z,27.12
2018-07-04T04:29:55.887Z,27.78
2018-07-04T04:30:41.253Z,28.24
2018-07-04T04:31:41.024Z,28.62
2018-07-04T04:32:41.310Z,28.95
2018-07-04T04:34:41.365Z,28.88
2018-07-04T04:35:41.394Z,28.9
2018-07-04T04:36:41.422Z,29.06
2018-07-04T04:37:41.194Z,29.74
2018-07-04T04:38:41.485Z,30.15
2018-07-04T04:39:41.508Z,30.47
2018-07-04T04:40:41.544Z,30.79
2018-07-04T04:41:41.572Z,30.43
2018-07-04T04:42:41.601Z,30.49
2018-07-04T04:43:41.633Z,31.01
2018-07-04T04:44:41.409Z,31.12
2018-07-04T04:45:56.359Z,31.43
2018-07-04T04:46:41.729Z,31.75
2018-07-04T04:47:41.500Z,32.43
2018-07-04T04:48:41.787Z,32.79
2018-07-04T04:49:41.828Z,32.88
2018-07-04T04:50:41.853Z,33.03
2018-07-04T04:51:41.892Z,32.96
2018-07-04T04:52:41.917Z,33.47
2018-07-04T04:53:41.951Z,33.61
2018-07-04T04:54:56.648Z,33.49
2018-07-04T04:55:42.015Z,33.29
2018-07-04T04:56:42.049Z,33.38
2018-07-04T04:57:42.086Z,33.6
2018-07-04T04:58:41.876Z,33.69
2018-07-04T04:59:42.156Z,33.87
2018-07-04T05:00:56.855Z,33.79
2018-07-04T05:01:42.225Z,33.88
2018-07-04T05:02:42.253Z,33.95
2018-07-04T05:03:42.036Z,33.97
2018-07-04T05:04:42.317Z,33.65
2018-07-04T05:05:42.358Z,34.1
2018-07-04T05:06:42.389Z,34.49
2018-07-04T05:07:42.427Z,34.44
2018-07-04T05:08:42.457Z,34.06
2018-07-04T05:09:42.492Z,34.16
2018-07-04T05:10:56.939Z,34.31
2018-07-04T05:11:42.559Z,34.27
2018-07-04T05:12:42.337Z,34.02
2018-07-04T05:13:42.628Z,34.17
2018-07-04T05:14:42.670Z,34.42
2018-07-04T05:15:42.801Z,34.35
2018-07-04T05:17:42.512Z,34.84
2018-07-04T05:18:42.609Z,35.11
2018-07-04T05:19:42.845Z,35.48
2018-07-04T05:20:42.875Z,35.4
2018-07-04T05:21:42.658Z,35.55
2018-07-04T05:22:42.743Z,36.15
2018-07-04T05:23:42.986Z,36.05
2018-07-04T05:24:43.019Z,36.43
2018-07-04T05:25:43.066Z,36.08
2018-07-04T05:26:43.100Z,36.15
2018-07-04T05:27:43.133Z,36.28
2018-07-04T05:28:43.168Z,36.51
2018-07-04T05:30:43.237Z,36.78
2018-07-04T05:31:43.276Z,36.94
2018-07-04T05:32:57.983Z,37.43
2018-07-04T05:33:43.091Z,37.09
2018-07-04T05:34:58.154Z,37.09
2018-07-04T05:37:43.711Z,37.12
2018-07-04T05:38:43.541Z,37.31
2018-07-04T05:39:43.578Z,37.27
2018-07-04T05:40:43.353Z,37.62
2018-07-04T05:41:43.776Z,37.64
2018-07-04T05:42:43.425Z,37.56
2018-07-04T05:43:43.723Z,37.63
2018-07-04T05:44:43.670Z,37.6
2018-07-04T05:45:43.803Z,37.22
2018-07-04T05:46:43.673Z,37.32
2018-07-04T05:47:44.233Z,37.86
2018-07-04T05:48:58.316Z,38.15
2018-07-04T05:49:43.945Z,37.82
2018-07-04T05:50:44.205Z,37.88
2018-07-04T05:51:44.023Z,38.42
2018-07-04T05:52:44.211Z,38.5
2018-07-04T05:53:44.099Z,38.76
2018-07-04T05:54:44.244Z,39.16
2018-07-04T05:55:44.297Z,39.22
2018-07-04T05:56:43.957Z,38.93
2018-07-04T05:57:58.921Z,38.74
2018-07-04T05:58:44.291Z,39.06
2018-07-04T05:59:58.993Z,39.01
2018-07-04T06:00:44.368Z,39.25
2018-07-04T06:01:44.150Z,39.26
2018-07-04T06:02:44.258Z,38.16
2018-07-04T06:03:44.483Z,38.03
2018-07-04T06:04:59.189Z,37.91
2018-07-04T06:05:44.561Z,38.04
2018-07-04T06:06:44.598Z,38.5
2018-07-04T06:07:44.641Z,38.88
2018-07-04T06:08:44.680Z,39.59
2018-07-04T06:09:44.719Z,39.35
2018-07-04T06:11:59.462Z,39.96
2018-07-04T06:12:59.502Z,39.98
2018-07-04T06:13:44.874Z,40.48
2018-07-04T06:14:44.916Z,40.95
2018-07-04T06:15:59.619Z,40.95
2018-07-04T06:16:44.991Z,41.02
2018-07-04T06:17:45.301Z,41.1
2018-07-04T06:18:45.080Z,41.1
2018-07-04T06:19:45.120Z,40.98
2018-07-04T06:20:59.818Z,41.13
2018-07-04T06:22:45.230Z,41.3
2018-07-04T06:24:45.619Z,41.07
2018-07-04T06:25:45.351Z,41.35
2018-07-04T06:26:45.130Z,41.41
2018-07-04T06:27:45.170Z,41.36
2018-07-04T06:28:45.470Z,41.14
2018-07-04T06:29:45.521Z,41.07
2018-07-04T06:30:45.294Z,41.67
2018-07-04T06:31:45.332Z,41.04
2018-07-04T06:32:45.639Z,40.34
2018-07-04T06:33:45.670Z,41.01
2018-07-04T06:34:45.712Z,40.92
2018-07-04T06:36:00.422Z,40.7
2018-07-04T06:36:45.794Z,40.45
2018-07-04T06:37:45.834Z,41.04
2018-07-04T06:38:45.870Z,41.62
2018-07-04T06:39:45.955Z,41.42
2018-07-04T06:41:00.623Z,41.66
2018-07-04T06:41:45.477Z,41.99
2018-07-04T06:42:46.032Z,41.74
2018-07-04T06:43:46.073Z,41.7
2018-07-04T06:44:46.122Z,41.2
2018-07-04T06:45:46.162Z,40.8
2018-07-04T06:46:45.943Z,40.84
2018-07-04T06:47:46.239Z,41.1
2018-07-04T06:48:46.283Z,41.44
2018-07-04T06:49:46.324Z,41.73
2018-07-04T06:51:46.397Z,41.39
2018-07-04T06:52:46.192Z,41.67
2018-07-04T06:53:46.220Z,41.91
2018-07-04T06:54:46.531Z,42.21
2018-07-04T06:55:46.563Z,41.99
2018-07-04T06:56:46.600Z,42.27
2018-07-04T06:57:46.645Z,42.43
2018-07-04T06:58:46.712Z,42.86
2018-07-04T06:59:46.772Z,42.65
2018-07-04T07:00:46.764Z,42.96
2018-07-04T07:02:46.590Z,42.13
2018-07-04T07:03:46.888Z,41.76
2018-07-04T07:04:46.930Z,41.9
2018-07-04T07:05:46.973Z,41.9
2018-07-04T07:08:01.724Z,41.73
2018-07-04T07:08:47.231Z,42.3
2018-07-04T07:09:47.141Z,41.9
2018-07-04T07:10:46.923Z,41.23
2018-07-04T07:12:01.895Z,40.8
2018-07-04T07:12:47.360Z,40.91
2018-07-04T07:13:47.305Z,41.2
2018-07-04T07:14:47.338Z,42.01
2018-07-04T07:15:47.381Z,43.08
2018-07-04T07:16:47.418Z,43.33
2018-07-04T07:17:47.461Z,43
2018-07-04T07:18:47.246Z,42.8
2018-07-04T07:19:47.290Z,42.78
2018-07-04T07:20:47.584Z,42.39
2018-07-04T07:21:47.376Z,42.49
2018-07-04T07:22:47.666Z,42.24
2018-07-04T07:24:02.370Z,41.8
2018-07-04T07:24:47.751Z,41.16
2018-07-04T07:25:47.791Z,40.39
2018-07-04T07:26:47.836Z,40.73
2018-07-04T07:27:47.872Z,41.23
2018-07-04T07:28:47.909Z,41.98
2018-07-04T07:29:47.960Z,41.93
2018-07-04T07:30:47.739Z,42.25
2018-07-04T07:31:48.033Z,42.61
2018-07-04T07:33:02.740Z,43.1
2018-07-04T07:33:48.120Z,42.98
2018-07-04T07:34:48.158Z,42.05
2018-07-04T07:35:47.940Z,41.78
2018-07-04T07:36:48.243Z,42.05
2018-07-04T07:37:48.292Z,41.35
2018-07-04T07:38:48.062Z,41.51
2018-07-04T07:40:03.023Z,41.86
2018-07-04T07:40:48.148Z,41.55
2018-07-04T07:42:48.222Z,41.55
2018-07-04T07:43:48.266Z,41.93
2018-07-04T07:44:48.564Z,42.11
2018-07-04T07:45:48.605Z,42.35
2018-07-04T07:46:48.645Z,42.62
2018-07-04T07:47:48.428Z,42.81
2018-07-04T07:48:48.910Z,42.28
2018-07-04T07:49:48.611Z,42.54
2018-07-04T07:51:03.472Z,41.71
2018-07-04T07:51:48.846Z,41.51
2018-07-04T07:52:48.888Z,41.44
2018-07-04T07:53:48.931Z,41.66
2018-07-04T07:54:48.972Z,41.96
2018-07-04T07:56:03.677Z,42.31
2018-07-04T07:56:49.050Z,42.4
2018-07-04T07:57:49.094Z,42.23
2018-07-04T07:58:49.134Z,43.1
2018-07-04T07:59:48.916Z,43.33
2018-07-04T08:00:49.230Z,43.23
2018-07-04T08:01:49.359Z,42.77
2018-07-04T08:02:49.296Z,41.93
2018-07-04T08:03:49.077Z,41.3
2018-07-04T08:04:49.119Z,40.91
2018-07-04T08:05:49.176Z,40.76
2018-07-04T08:07:04.121Z,40.77
2018-07-04T08:07:49.497Z,40.22
2018-07-04T08:08:49.283Z,40.46
2018-07-04T08:09:49.582Z,40.57
2018-07-04T08:11:04.291Z,40.67
2018-07-04T08:11:49.661Z,40.58
2018-07-04T08:13:04.501Z,40.74
2018-07-04T08:13:49.747Z,40.72
2018-07-04T08:14:49.524Z,41.26
2018-07-04T08:15:49.822Z,41.21
2018-07-04T08:16:49.860Z,41.04
2018-07-04T08:17:49.901Z,40.08
2018-07-04T08:19:04.625Z,38.88
2018-07-04T08:19:49.975Z,38.57
2018-07-04T08:20:49.813Z,37.63
2018-07-04T08:22:50.106Z,38.06
2018-07-04T08:23:50.144Z,38.18
2018-07-04T08:24:50.186Z,38.3
2018-07-04T08:25:50.223Z,38.63
2018-07-04T08:26:50.004Z,38.98
2018-07-04T08:27:50.300Z,39.06
2018-07-04T08:28:50.339Z,39.59
2018-07-04T08:29:50.382Z,40.42
2018-07-04T08:31:50.205Z,40.41
2018-07-04T08:32:50.503Z,40.29
2018-07-04T08:33:50.542Z,40.55
2018-07-04T08:34:50.316Z,40.65
2018-07-04T08:35:50.621Z,40.72
2018-07-04T08:37:05.319Z,41.08
2018-07-04T08:37:50.696Z,41.3
2018-07-04T08:38:50.802Z,41.04
2018-07-04T08:39:50.772Z,40.48
2018-07-04T08:40:50.811Z,40.48
2018-07-04T08:41:50.847Z,40.95
2018-07-04T08:43:05.556Z,41.1
2018-07-04T08:43:50.930Z,41.33
2018-07-04T08:44:51.200Z,41.21
2018-07-04T08:46:50.791Z,40.51
2018-07-04T08:47:51.086Z,39.7
2018-07-04T08:48:51.125Z,39.44
2018-07-04T08:49:51.161Z,39.77
2018-07-04T08:50:51.546Z,39.86
2018-07-04T08:53:05.958Z,40.1
2018-07-04T08:53:51.325Z,40.74
2018-07-04T08:55:51.397Z,40.25
2018-07-04T08:56:51.177Z,40.87
2018-07-04T08:57:51.472Z,41.26
2018-07-04T08:59:06.190Z,41.28
2018-07-04T08:59:51.648Z,41.23
2018-07-04T09:00:51.590Z,41.11
2018-07-04T09:01:51.368Z,40.87
2018-07-04T09:02:51.669Z,40.98
2018-07-04T09:03:51.708Z,41.39
2018-07-04T09:04:51.853Z,41.73
2018-07-04T09:05:51.780Z,41.2
2018-07-04T09:06:51.823Z,40.34
2018-07-04T09:07:51.907Z,39.5
2018-07-04T09:08:51.896Z,39.22
2018-07-04T09:09:51.939Z,39.4
2018-07-04T09:10:51.975Z,39.98
2018-07-04T09:12:06.752Z,40.94
2018-07-04T09:12:52.049Z,41.04
2018-07-04T09:13:52.089Z,40.98
2018-07-04T09:15:06.797Z,40.32
2018-07-04T09:15:51.904Z,40.39
2018-07-04T09:16:52.202Z,40.72
2018-07-04T09:17:52.240Z,40.27
2018-07-04T09:19:06.947Z,39.79
2018-07-04T09:21:07.022Z,40.27
2018-07-04T09:21:52.391Z,40.08
2018-07-04T09:22:52.432Z,40.26
2018-07-04T09:23:52.470Z,39.77
2018-07-04T09:25:06.913Z,38.23
2018-07-04T09:26:52.576Z,37.93
2018-07-04T09:27:52.616Z,37.84
2018-07-04T09:28:52.656Z,38.61
2018-07-04T09:29:52.691Z,38.87
2018-07-04T09:31:07.137Z,37.41
2018-07-04T09:31:52.799Z,37.5
2018-07-04T09:33:52.584Z,38.18
2018-07-04T09:34:52.636Z,38.2
2018-07-04T09:35:52.917Z,37.85
2018-07-04T09:36:52.969Z,38.61
2018-07-04T09:37:52.743Z,38.86
2018-07-04T09:38:53.035Z,38.88
2018-07-04T09:39:52.815Z,38.3
2018-07-04T09:41:07.765Z,38.01
2018-07-04T09:41:53.147Z,38.32
2018-07-04T09:42:53.175Z,37.37
2018-07-04T09:43:53.343Z,36.71
2018-07-04T09:44:53.255Z,36.23
2018-07-04T09:46:07.957Z,37.06
2018-07-04T09:46:53.325Z,37.34
2018-07-04T09:47:53.544Z,37.84
2018-07-04T09:49:53.437Z,39.26
2018-07-04T09:50:53.573Z,39.16
2018-07-04T09:51:53.245Z,38.93
2018-07-04T09:52:53.284Z,38.5
2018-07-04T09:53:53.576Z,37.64
2018-07-04T09:54:53.614Z,36.95
2018-07-04T09:55:53.657Z,36.59
2018-07-04T09:56:53.688Z,36.78
2018-07-04T09:57:53.727Z,36.59
2018-07-04T09:58:53.621Z,36.85
2018-07-04T09:59:53.809Z,37.17
2018-07-04T10:00:53.847Z,37.97
2018-07-04T10:01:53.869Z,38.31
2018-07-04T10:02:53.904Z,38.11
2018-07-04T10:03:53.683Z,38.13
2018-07-04T10:04:53.976Z,38.46
2018-07-04T10:05:54.134Z,38.54
2018-07-04T10:06:54.048Z,38.42
2018-07-04T10:07:54.093Z,38.16
2018-07-04T10:08:53.863Z,38.03
2018-07-04T10:09:53.901Z,38.31
2018-07-04T10:11:08.856Z,38.13
2018-07-04T10:12:08.892Z,38.13
2018-07-04T10:12:54.013Z,38.01
2018-07-04T10:13:54.316Z,37.85
2018-07-04T10:14:54.078Z,37.2
2018-07-04T10:15:54.368Z,36.85
2018-07-04T10:16:54.411Z,37.02
2018-07-04T10:18:09.107Z,37.55
2018-07-04T10:18:54.220Z,37.66
2018-07-04T10:19:54.525Z,36.83
2018-07-04T10:20:54.550Z,36.95
2018-07-04T10:21:54.584Z,36.98
2018-07-04T10:22:54.420Z,37.18
2018-07-04T10:23:54.656Z,36.62
2018-07-04T10:24:54.692Z,36.01
2018-07-04T10:25:54.726Z,36.68
2018-07-04T10:26:54.761Z,37.18
2018-07-04T10:27:54.808Z,36.85
2018-07-04T10:28:54.873Z,37.32
2018-07-04T10:29:54.869Z,37.49
2018-07-04T10:30:54.902Z,37.07
2018-07-04T10:31:54.941Z,37.22
2018-07-04T10:32:54.980Z,37.7
2018-07-04T10:34:09.416Z,37.97
2018-07-04T10:34:55.040Z,37.88
2018-07-04T10:35:55.087Z,36.81
2018-07-04T10:36:54.861Z,36.75
2018-07-04T10:37:55.149Z,36.54
2018-07-04T10:38:55.186Z,36.57
2018-07-04T10:40:09.885Z,36.46
2018-07-04T10:41:55.289Z,35.6
2018-07-04T10:42:55.328Z,35.89
2018-07-04T10:44:10.021Z,35.5
2018-07-04T10:44:55.680Z,35.58
2018-07-04T10:45:55.428Z,35.58
2018-07-04T10:46:55.465Z,35.47
2018-07-04T10:47:55.239Z,35.04
2018-07-04T10:48:55.536Z,34.88
2018-07-04T10:50:10.231Z,35.34
2018-07-04T10:50:55.692Z,35.43
2018-07-04T10:51:55.640Z,35.4
2018-07-04T10:52:55.682Z,34.85
2018-07-04T10:53:55.711Z,34.08
2018-07-04T10:54:55.764Z,33.44
2018-07-04T10:55:55.792Z,32.84
2018-07-04T10:57:55.856Z,32.01
2018-07-04T10:58:55.877Z,31.75
2018-07-04T11:00:10.575Z,32.18
2018-07-04T11:00:55.944Z,32.72
2018-07-04T11:01:56.013Z,33.19
2018-07-04T11:02:56.014Z,33.63
2018-07-04T11:03:55.794Z,33.47
2018-07-04T11:04:56.086Z,33.82
2018-07-04T11:06:56.151Z,34.28
2018-07-04T11:07:56.292Z,34.64
2018-07-04T11:08:56.218Z,34.77
2018-07-04T11:09:56.250Z,34.72
2018-07-04T11:10:56.290Z,34.92
2018-07-04T11:11:56.317Z,34.91
2018-07-04T11:12:56.353Z,34.87
2018-07-04T11:13:56.389Z,34.82
2018-07-04T11:14:56.423Z,34.85
2018-07-04T11:15:56.454Z,34.81
2018-07-04T11:16:56.746Z,34.65
2018-07-04T11:17:56.520Z,34.02
2018-07-04T11:18:56.553Z,33.69
2018-07-04T11:19:56.598Z,33.78
2018-07-04T11:21:11.293Z,33.93
2018-07-04T11:21:56.396Z,34.1
2018-07-04T11:23:56.461Z,34.42
2018-07-04T11:24:56.505Z,34.77
2018-07-04T11:25:56.538Z,34.88
2018-07-04T11:26:56.819Z,34.92
2018-07-04T11:27:56.854Z,35
2018-07-04T11:28:56.378Z,34.75
2018-07-04T11:30:56.696Z,34.96
2018-07-04T11:31:56.992Z,34.96
2018-07-04T11:32:57.019Z,34.87
2018-07-04T11:33:57.051Z,34.91
2018-07-04T11:34:57.084Z,34.64
2018-07-04T11:35:57.123Z,34.78
2018-07-04T11:36:57.149Z,34.82
2018-07-04T11:37:56.932Z,34.92
2018-07-04T11:38:56.960Z,34.77
2018-07-04T11:40:57.283Z,34.66
2018-07-04T11:41:57.319Z,34.88
2018-07-04T11:42:57.360Z,35
2018-07-04T11:43:57.384Z,35.14
2018-07-04T11:45:12.081Z,35.07
2018-07-04T11:45:57.192Z,35.04
2018-07-04T11:46:57.481Z,35.04
2018-07-04T11:48:57.551Z,35.04
2018-07-04T11:49:57.170Z,35.11
2018-07-04T11:51:57.648Z,34.96
2018-07-04T11:53:12.421Z,34.82
2018-07-04T11:53:57.717Z,34.49
2018-07-04T11:54:57.490Z,33.57
2018-07-04T11:55:57.777Z,32.82
2018-07-04T11:56:57.664Z,33.12
2018-07-04T11:57:57.846Z,33.53
2018-07-04T11:59:57.910Z,34.15
2018-07-04T12:00:57.943Z,34.49
2018-07-04T12:01:58.056Z,34.64
2018-07-04T12:03:12.675Z,34.47
2018-07-04T12:03:57.783Z,34.39
2018-07-04T12:04:58.080Z,34.28
2018-07-04T12:05:58.109Z,34.22
2018-07-04T12:06:58.136Z,34.24
2018-07-04T12:07:58.176Z,34.4
2018-07-04T12:09:12.866Z,34.72
2018-07-04T12:09:58.248Z,34.5
2018-07-04T12:10:58.457Z,34.02
2018-07-04T12:11:58.307Z,33.82
2018-07-04T12:12:58.335Z,34.02
2018-07-04T12:13:58.414Z,34.12
2018-07-04T12:14:58.405Z,34.15
2018-07-04T12:15:58.431Z,34.17
2018-07-04T12:16:58.214Z,34.24
2018-07-04T12:17:58.501Z,34.27
2018-07-04T12:18:58.536Z,34.06
2018-07-04T12:19:58.311Z,34.28
2018-07-04T12:20:58.712Z,34.43
2018-07-04T12:21:58.370Z,34.5
2018-07-04T12:22:58.660Z,34.46
2018-07-04T12:23:58.692Z,34.4
2018-07-04T12:26:58.986Z,34.03
2018-07-04T12:28:58.855Z,34.1
2018-07-04T12:29:58.888Z,34
2018-07-04T12:30:58.919Z,34
2018-07-04T12:31:59.045Z,33.91
2018-07-04T12:32:58.983Z,34
2018-07-04T12:33:59.014Z,33.71
2018-07-04T12:34:59.061Z,33.73
2018-07-04T12:35:59.080Z,33.66
2018-07-04T12:36:58.857Z,33.56
2018-07-04T12:39:59.213Z,33.71
2018-07-04T12:41:13.907Z,33.88
2018-07-04T12:41:59.019Z,33.88
2018-07-04T12:43:59.080Z,34.1
2018-07-04T12:44:59.376Z,34.21
2018-07-04T12:45:59.148Z,34.08
2018-07-04T12:47:14.126Z,34.03
2018-07-04T12:47:59.209Z,34.09
2018-07-04T12:49:14.161Z,33.94
2018-07-04T12:50:14.193Z,33.93
2018-07-04T12:50:59.303Z,33.87
2018-07-04T12:51:59.596Z,34.05
2018-07-04T12:52:59.629Z,34
2018-07-04T12:53:59.982Z,34.15
2018-07-04T12:54:59.692Z,33.93
2018-07-04T12:56:14.387Z,33.59
2018-07-04T12:56:59.498Z,33.66
2018-07-04T12:57:59.793Z,33.76
2018-07-04T12:58:59.818Z,33.94
2018-07-04T12:59:59.596Z,33.75
2018-07-04T13:00:59.892Z,33.73
2018-07-04T13:02:14.588Z,33.51
2018-07-04T13:03:00.200Z,33.54
2018-07-04T13:03:59.977Z,33.22
2018-07-04T13:05:14.699Z,33.35
2018-07-04T13:06:00.050Z,33.49
2018-07-04T13:07:00.075Z,33.34
2018-07-04T13:08:00.106Z,33.44
2018-07-04T13:09:00.139Z,33.37
2018-07-04T13:10:00.171Z,33.16
2018-07-04T13:11:00.205Z,33.01
2018-07-04T13:12:00.238Z,32.82
2018-07-04T13:14:00.468Z,32.78
2018-07-04T13:16:00.365Z,32.85
2018-07-04T13:17:00.398Z,32.89
2018-07-04T13:18:00.427Z,32.96
2018-07-04T13:19:00.457Z,33.07
2018-07-04T13:20:00.497Z,33.15
2018-07-04T13:22:00.553Z,33.28
2018-07-04T13:23:14.991Z,33.16
2018-07-04T13:24:00.614Z,32.96
2018-07-04T13:25:00.650Z,32.96
2018-07-04T13:26:00.575Z,33.26
2018-07-04T13:27:00.453Z,33.44
2018-07-04T13:28:15.406Z,33.42
2018-07-04T13:29:00.520Z,33.41
2018-07-04T13:30:00.809Z,33.39
2018-07-04T13:32:01.036Z,33.35
2018-07-04T13:33:00.907Z,33.32
2018-07-04T13:34:15.599Z,33.37
2018-07-04T13:35:00.967Z,33.31
2018-07-04T13:36:00.741Z,33.16
2018-07-04T13:37:15.435Z,33.21
2018-07-04T13:38:01.057Z,33.18
2018-07-04T13:39:01.091Z,33.31
2018-07-04T13:40:01.124Z,33.45
2018-07-04T13:41:01.154Z,33.45
2018-07-04T13:42:00.927Z,33.11
2018-07-04T13:43:01.219Z,33.12
2018-07-04T13:44:15.984Z,33.12
2018-07-04T13:45:01.279Z,33.11
2018-07-04T13:46:01.064Z,33.23
2018-07-04T13:47:16.012Z,33.29
2018-07-04T13:48:01.375Z,33.35
2018-07-04T13:50:01.437Z,33.18
2018-07-04T13:51:01.466Z,33.26
2018-07-04T13:52:16.162Z,33.42
2018-07-04T13:53:01.530Z,33.51
2018-07-04T13:54:01.563Z,33.44
2018-07-04T13:55:01.605Z,33.45